Terminal Aerodrome Forecast
Issued by NWS Quad Cities IA IL

Home | Current Version | Previous Version | Text Only | Print | Product List | Glossary On
Versions: 1 2 3 4 5 6 7 8 9 10 11 12 13 14 15 16 17 18 19 20 21
000
FTUS43 KDVN 282100 AAA
TAFMLI
TAF AMD
KMLI 282101Z 2821/2918 13007KT P6SM SCT250
     FM290600 16012KT P6SM SCT120 BKN250
     FM291200 18014G23KT P6SM VCSH OVC100
     FM291700 20018G27KT P6SM SCT100 SCT250=

USA.gov is the U.S. government's official web portal to all federal, state and local government web resources and services.